Time;durP1;ratioP1;P1;durP2;ratioP2;P2;SDS_P1;SDS_P2;PMS_P1;PMS_P2;Temp;Humidity;BMP_temperature;BMP_pressure;BME280_temperature;BME280_humidity;BME280_pressure;Samples;Min_cycle;Max_cycle;Signal;HPM_P1;HPM_P2
2023/10/17 00:00:28;;;;;;;1.88;1.52;;;6.80;99.90;;;;;;5018560;28;20232;-65
2023/10/17 00:02:59;;;;;;;3.17;1.20;;;6.70;99.90;;;;;;5013869;28;20256;-65
2023/10/17 00:05:27;;;;;;;1.38;1.10;;;6.50;99.90;;;;;;5012333;28;20671;-66
2023/10/17 00:07:58;;;;;;;2.40;1.40;;;6.40;99.90;;;;;;5011105;28;20784;-66
2023/10/17 00:10:31;;;;;;;4.40;1.00;;;6.40;99.90;;;;;;5010320;28;20216;-65
2023/10/17 00:13:17;;;;;;;3.40;1.33;;;6.40;99.90;;;;;;5002582;28;20291;-65
2023/10/17 00:15:46;;;;;;;1.23;0.88;;;6.30;99.90;;;;;;5007104;28;20208;-64
2023/10/17 00:18:16;;;;;;;1.85;1.30;;;6.30;99.90;;;;;;5010023;28;20202;-67
2023/10/17 00:20:44;;;;;;;3.38;1.23;;;6.40;99.90;;;;;;5010126;28;20233;-66
2023/10/17 00:23:15;;;;;;;1.85;1.10;;;6.30;99.90;;;;;;5013111;28;20640;-66
2023/10/17 00:25:45;;;;;;;1.33;1.10;;;6.30;99.90;;;;;;5005585;28;20216;-65
2023/10/17 00:28:14;;;;;;;1.13;1.00;;;6.20;99.90;;;;;;5001639;28;20292;-66
2023/10/17 00:30:42;;;;;;;2.42;0.90;;;6.20;99.90;;;;;;5006817;28;20209;-67
2023/10/17 00:33:10;;;;;;;1.58;0.82;;;6.30;99.90;;;;;;5009262;28;20234;-65
2023/10/17 00:35:39;;;;;;;2.38;1.08;;;6.20;99.90;;;;;;5013915;28;20201;-65
2023/10/17 00:38:08;;;;;;;1.20;1.10;;;6.20;99.90;;;;;;5008785;28;20225;-65
2023/10/17 00:40:48;;;;;;;3.15;1.00;;;6.20;99.90;;;;;;5010270;28;20665;-64
2023/10/17 00:43:16;;;;;;;1.48;1.15;;;6.30;99.90;;;;;;5006263;28;20268;-64
2023/10/17 00:45:46;;;;;;;4.47;1.42;;;6.20;99.90;;;;;;5007182;28;20209;-65
2023/10/17 00:48:18;;;;;;;1.10;0.90;;;6.20;99.90;;;;;;5005701;28;20205;-65
2023/10/17 00:50:50;;;;;;;1.00;0.80;;;6.30;99.90;;;;;;5012556;28;20215;-65
2023/10/17 00:53:20;;;;;;;2.95;1.00;;;6.30;99.90;;;;;;5021431;28;20228;-65
2023/10/17 00:55:55;;;;;;;1.20;1.10;;;6.20;99.90;;;;;;5014193;28;20202;-65
2023/10/17 00:58:24;;;;;;;1.15;0.88;;;6.30;99.90;;;;;;5007312;28;20355;-65
2023/10/17 01:00:58;;;;;;;1.23;0.80;;;6.20;99.90;;;;;;5006577;28;20218;-66
2023/10/17 01:03:29;;;;;;;1.00;0.93;;;6.20;99.90;;;;;;5006110;28;20248;-66
2023/10/17 01:06:13;;;;;;;2.35;0.90;;;6.10;99.90;;;;;;5000884;28;20210;-65
2023/10/17 01:08:44;;;;;;;2.85;1.05;;;6.10;99.90;;;;;;5006088;28;20213;-66
2023/10/17 01:11:20;;;;;;;3.20;1.13;;;6.10;99.90;;;;;;5003489;28;20726;-66
2023/10/17 01:13:51;;;;;;;1.85;0.80;;;6.10;99.90;;;;;;5000674;28;20221;-66
2023/10/17 01:16:20;;;;;;;0.80;0.80;;;6.00;99.90;;;;;;5003686;28;20217;-66
2023/10/17 01:18:48;;;;;;;2.45;1.27;;;6.00;99.90;;;;;;4998648;28;20209;-66
2023/10/17 01:21:18;;;;;;;1.23;1.05;;;5.90;99.90;;;;;;5008292;28;20221;-66
2023/10/17 01:23:47;;;;;;;2.25;0.90;;;5.90;99.90;;;;;;5011616;28;20617;-66
2023/10/17 01:26:23;;;;;;;1.67;1.10;;;5.90;99.90;;;;;;5000880;28;20216;-68
2023/10/17 01:28:52;;;;;;;2.10;1.30;;;5.80;99.90;;;;;;5003437;28;20857;-66
2023/10/17 01:31:23;;;;;;;1.02;0.93;;;5.80;99.90;;;;;;5001447;28;20690;-66
2023/10/17 01:33:54;;;;;;;0.70;0.60;;;5.70;99.90;;;;;;5001212;28;20229;-69
2023/10/17 01:36:23;;;;;;;0.95;0.85;;;5.70;99.90;;;;;;5000751;28;20265;-66
2023/10/17 01:38:52;;;;;;;1.70;1.08;;;5.70;99.90;;;;;;4999635;28;20582;-67
2023/10/17 01:41:22;;;;;;;1.17;1.08;;;5.70;99.90;;;;;;5005420;28;20232;-68
2023/10/17 01:43:50;;;;;;;1.50;1.40;;;5.70;99.90;;;;;;5005484;28;20664;-69
2023/10/17 01:46:22;;;;;;;1.35;0.88;;;5.70;99.90;;;;;;5001878;28;20212;-65
2023/10/17 01:48:53;;;;;;;1.88;0.77;;;5.70;99.90;;;;;;5000500;28;20220;-65
2023/10/17 01:51:23;;;;;;;1.85;0.80;;;5.70;99.90;;;;;;5004787;28;20225;-65
2023/10/17 01:53:52;;;;;;;1.10;0.90;;;5.70;99.90;;;;;;5011697;28;20228;-65
2023/10/17 01:56:25;;;;;;;2.15;0.80;;;5.70;99.90;;;;;;5004847;28;20221;-65
2023/10/17 01:58:59;;;;;;;0.90;0.90;;;5.70;99.90;;;;;;5002344;28;20208;-65
2023/10/17 02:01:29;;;;;;;0.90;0.80;;;5.70;99.90;;;;;;4998837;28;20234;-65
2023/10/17 02:04:02;;;;;;;2.35;0.98;;;5.70;99.90;;;;;;4995470;28;20576;-65
2023/10/17 02:06:30;;;;;;;1.23;1.13;;;5.60;99.90;;;;;;5001684;28;20202;-65
2023/10/17 02:08:59;;;;;;;1.35;1.25;;;5.60;99.90;;;;;;5002808;28;20229;-65
2023/10/17 02:11:34;;;;;;;2.55;1.10;;;5.60;99.90;;;;;;5001808;28;20221;-65
2023/10/17 02:14:06;;;;;;;1.05;0.95;;;5.70;99.90;;;;;;5000595;28;20225;-67
2023/10/17 02:16:34;;;;;;;0.80;0.70;;;5.80;99.90;;;;;;5003406;28;20205;-68
2023/10/17 02:19:06;;;;;;;1.00;0.88;;;5.70;99.90;;;;;;5006815;28;20841;-63
2023/10/17 02:21:37;;;;;;;1.05;0.90;;;5.80;99.90;;;;;;5006619;28;20221;-65
2023/10/17 02:24:06;;;;;;;1.10;1.00;;;5.70;99.90;;;;;;5007639;28;20256;-65
2023/10/17 02:26:42;;;;;;;3.67;1.35;;;5.70;99.90;;;;;;4997806;28;20208;-65
2023/10/17 02:29:11;;;;;;;0.90;0.90;;;5.70;99.90;;;;;;4997853;28;20201;-65
2023/10/17 02:31:40;;;;;;;0.95;0.70;;;5.70;99.90;;;;;;5003662;28;20221;-65
2023/10/17 02:34:10;;;;;;;2.25;1.08;;;5.70;99.90;;;;;;5009530;28;20316;-65
2023/10/17 02:36:38;;;;;;;2.83;0.90;;;5.70;99.90;;;;;;5008512;28;20205;-65
2023/10/17 02:39:06;;;;;;;1.35;0.80;;;5.80;99.90;;;;;;5006177;28;20263;-65
2023/10/17 02:41:37;;;;;;;1.30;0.80;;;5.80;99.90;;;;;;5007274;28;20230;-66
2023/10/17 02:44:06;;;;;;;0.75;0.75;;;5.80;99.90;;;;;;5006567;28;20200;-66
2023/10/17 02:46:34;;;;;;;1.05;0.95;;;5.90;99.90;;;;;;5004416;28;20217;-66
2023/10/17 02:49:07;;;;;;;1.00;0.90;;;5.90;99.90;;;;;;5005279;28;20201;-66
2023/10/17 02:51:34;;;;;;;1.20;1.10;;;5.90;99.90;;;;;;5009275;28;20280;-66
2023/10/17 02:54:12;;;;;;;1.60;1.20;;;5.90;99.90;;;;;;5006908;28;20205;-66
2023/10/17 02:56:47;;;;;;;1.55;1.02;;;5.90;99.90;;;;;;5006506;28;20202;-66
2023/10/17 02:59:17;;;;;;;0.90;0.80;;;5.90;99.90;;;;;;4996762;28;20288;-66
2023/10/17 03:01:52;;;;;;;1.17;1.08;;;5.90;99.90;;;;;;5000797;28;20241;-65
2023/10/17 03:04:24;;;;;;;1.10;0.85;;;5.80;99.90;;;;;;5003584;28;20259;-66
2023/10/17 03:06:55;;;;;;;1.20;0.82;;;5.80;99.90;;;;;;5006992;28;20660;-65
2023/10/17 03:12:17;;;;;;;1.00;0.90;;;5.80;99.90;;;;;;4998713;28;20237;-66
2023/10/17 03:17:32;;;;;;;1.52;1.27;;;5.80;99.90;;;;;;5000349;28;20207;-65
2023/10/17 03:19:59;;;;;;;5.35;1.10;;;5.80;99.90;;;;;;5011059;28;20205;-66
2023/10/17 03:22:27;;;;;;;1.70;0.80;;;5.90;99.90;;;;;;5014010;28;20765;-65
2023/10/17 03:25:02;;;;;;;1.65;1.10;;;5.90;99.90;;;;;;5006944;28;20216;-68
2023/10/17 03:27:37;;;;;;;3.97;1.38;;;5.90;99.90;;;;;;5002110;28;20248;-66
2023/10/17 03:30:08;;;;;;;1.00;0.88;;;5.90;99.90;;;;;;5007091;28;20212;-66
2023/10/17 03:32:44;;;;;;;0.75;0.68;;;5.90;99.90;;;;;;5002837;28;20221;-67
2023/10/17 03:35:20;;;;;;;1.42;0.85;;;5.90;99.90;;;;;;5001888;28;20255;-67
2023/10/17 03:37:48;;;;;;;1.65;1.10;;;5.90;99.90;;;;;;5004128;28;20216;-68
2023/10/17 03:40:22;;;;;;;0.85;0.80;;;6.00;99.90;;;;;;5003326;28;20307;-66
2023/10/17 03:42:55;;;;;;;1.10;1.00;;;6.00;99.90;;;;;;5003008;28;20247;-67
2023/10/17 03:45:34;;;;;;;5.57;1.00;;;6.00;99.90;;;;;;5002768;28;20197;-65
2023/10/17 03:48:12;;;;;;;1.20;0.77;;;6.10;99.90;;;;;;5000330;28;20279;-68
2023/10/17 03:50:48;;;;;;;0.90;0.90;;;6.10;99.90;;;;;;5006155;28;20296;-66
2023/10/17 03:53:24;;;;;;;1.55;1.45;;;6.10;99.90;;;;;;5009346;28;20233;-66
2023/10/17 03:55:52;;;;;;;1.10;0.75;;;6.00;99.90;;;;;;5004557;28;20232;-66
2023/10/17 03:58:31;;;;;;;0.68;0.60;;;6.00;99.90;;;;;;4999268;28;20201;-66
2023/10/17 04:01:06;;;;;;;4.70;1.05;;;6.10;99.90;;;;;;5003247;28;20216;-66
2023/10/17 04:03:34;;;;;;;1.48;1.00;;;6.00;99.90;;;;;;5004091;28;20276;-66
2023/10/17 04:06:16;;;;;;;1.45;0.90;;;6.10;99.90;;;;;;5015087;28;20229;-65
2023/10/17 04:08:49;;;;;;;1.20;1.05;;;6.10;99.90;;;;;;5005834;28;20218;-65
2023/10/17 04:11:25;;;;;;;1.88;1.42;;;6.10;99.90;;;;;;5007657;28;20307;-65
2023/10/17 04:13:56;;;;;;;4.13;0.80;;;6.10;99.90;;;;;;5002561;28;20296;-64
2023/10/17 04:16:33;;;;;;;1.90;1.25;;;6.10;99.90;;;;;;4998167;28;20229;-65
2023/10/17 04:19:01;;;;;;;1.20;1.08;;;6.00;99.90;;;;;;4998844;28;20220;-64
2023/10/17 04:21:31;;;;;;;2.72;0.90;;;6.00;99.90;;;;;;4998599;28;20232;-65
2023/10/17 04:24:01;;;;;;;2.20;1.00;;;6.00;99.90;;;;;;4998824;28;20209;-65
2023/10/17 04:26:34;;;;;;;1.70;0.80;;;6.00;99.90;;;;;;4998771;28;20213;-65
2023/10/17 04:29:12;;;;;;;1.00;0.90;;;6.00;99.90;;;;;;4999028;28;21510;-65
2023/10/17 04:31:43;;;;;;;1.90;1.02;;;6.00;99.90;;;;;;4999178;28;20233;-66
2023/10/17 04:34:17;;;;;;;1.40;1.27;;;6.10;99.90;;;;;;4998344;28;20210;-65
2023/10/17 04:36:46;;;;;;;1.20;1.00;;;6.10;99.90;;;;;;4998868;28;20233;-65
2023/10/17 04:39:19;;;;;;;3.22;1.05;;;6.10;99.90;;;;;;4998365;28;20241;-65
2023/10/17 04:44:51;;;;;;;1.40;1.30;;;6.10;99.90;;;;;;5112958;27;20820;-66
2023/10/17 04:47:30;;;;;;;1.10;1.00;;;6.10;99.90;;;;;;5111783;28;20259;-64
2023/10/17 04:49:58;;;;;;;1.92;1.42;;;6.10;99.90;;;;;;5113852;28;20209;-65
2023/10/17 04:52:40;;;;;;;1.40;1.30;;;6.10;99.90;;;;;;5112010;28;20232;-64
2023/10/17 04:55:18;;;;;;;2.00;0.93;;;6.10;99.90;;;;;;5112012;28;20278;-65
2023/10/17 04:57:57;;;;;;;1.52;1.08;;;6.10;99.90;;;;;;5111446;28;20254;-65
2023/10/17 05:00:43;;;;;;;1.30;1.20;;;6.10;99.90;;;;;;5111994;28;20694;-64
2023/10/17 05:03:27;;;;;;;1.38;1.00;;;6.10;99.90;;;;;;5110955;28;20221;-64
2023/10/17 05:06:18;;;;;;;0.98;0.88;;;6.10;99.90;;;;;;5111812;28;20209;-64
2023/10/17 05:09:00;;;;;;;1.15;1.05;;;6.10;99.90;;;;;;5113254;28;20286;-65
2023/10/17 06:18:17;;;;;;;1.30;1.20;;;6.00;99.90;;;;;;5097156;28;20247;-64
2023/10/17 06:32:07;;;;;;;3.45;1.10;;;6.10;99.90;;;;;;5096079;28;20724;-63
2023/10/17 06:34:34;;;;;;;1.92;1.35;;;6.10;99.90;;;;;;5095733;28;20217;-63
2023/10/17 06:37:07;;;;;;;3.55;1.08;;;6.20;99.90;;;;;;5094305;28;20210;-64
2023/10/17 06:39:45;;;;;;;2.58;1.35;;;6.20;99.90;;;;;;5095580;28;20289;-63
2023/10/17 06:42:18;;;;;;;1.35;1.23;;;6.30;99.90;;;;;;5093047;28;20562;-64
2023/10/17 06:44:53;;;;;;;1.40;1.27;;;6.30;99.90;;;;;;5091133;28;20229;-64
2023/10/17 06:47:30;;;;;;;1.55;1.45;;;6.40;99.90;;;;;;5094607;28;20252;-64
2023/10/17 06:50:29;;;;;;;3.65;1.38;;;6.50;99.90;;;;;;5093403;28;20210;-63
2023/10/17 06:53:02;;;;;;;1.88;1.77;;;6.50;99.90;;;;;;5092162;28;20232;-63
2023/10/17 06:55:38;;;;;;;2.97;1.40;;;6.60;99.90;;;;;;5094777;28;20214;-63
2023/10/17 06:58:14;;;;;;;1.60;1.42;;;6.70;99.90;;;;;;5094991;28;20998;-63
2023/10/17 07:00:43;;;;;;;2.05;1.40;;;6.60;99.90;;;;;;5093220;28;20223;-64
2023/10/17 07:03:14;;;;;;;1.48;1.30;;;6.70;99.90;;;;;;5093206;28;20597;-64
2023/10/17 07:05:49;;;;;;;2.92;1.23;;;6.70;99.90;;;;;;5093388;28;20214;-64
2023/10/17 07:08:19;;;;;;;1.42;1.33;;;6.80;99.90;;;;;;5092903;28;20247;-64
2023/10/17 07:11:02;;;;;;;1.35;1.25;;;6.80;99.90;;;;;;5092362;28;20335;-63
2023/10/17 07:13:50;;;;;;;5.63;1.40;;;6.80;99.90;;;;;;5091848;28;20205;-63
2023/10/17 07:16:26;;;;;;;3.45;1.20;;;6.80;99.90;;;;;;5096424;28;20786;-64
2023/10/17 07:18:55;;;;;;;2.60;1.20;;;6.80;99.90;;;;;;5091546;28;20213;-63
2023/10/17 07:21:24;;;;;;;2.58;1.30;;;6.80;99.90;;;;;;5091233;28;21567;-65
2023/10/17 07:23:54;;;;;;;1.58;1.10;;;6.90;99.90;;;;;;5095442;28;20220;-64
2023/10/17 07:26:39;;;;;;;2.95;1.65;;;7.00;99.90;;;;;;5093374;28;20224;-64
2023/10/17 07:29:07;;;;;;;2.70;1.40;;;7.10;99.90;;;;;;5096368;28;20206;-65
2023/10/17 07:31:36;;;;;;;1.52;1.33;;;7.10;99.90;;;;;;5092577;28;20230;-66
2023/10/17 07:34:21;;;;;;;1.60;1.35;;;7.10;99.90;;;;;;5095566;28;20202;-66
2023/10/17 07:36:57;;;;;;;1.58;1.48;;;7.10;99.90;;;;;;5092391;28;20210;-66
2023/10/17 07:39:29;;;;;;;1.83;1.10;;;7.20;99.90;;;;;;5094177;28;20221;-67
2023/10/17 07:42:00;;;;;;;2.55;1.48;;;7.20;99.90;;;;;;5089926;28;20278;-66
2023/10/17 07:44:30;;;;;;;2.45;1.40;;;7.20;99.90;;;;;;5093704;28;20243;-66
2023/10/17 07:47:09;;;;;;;2.10;1.50;;;7.30;99.90;;;;;;5093106;28;20214;-65
2023/10/17 07:49:39;;;;;;;4.28;1.33;;;7.30;99.90;;;;;;5094390;28;20266;-66
2023/10/17 07:52:10;;;;;;;1.45;1.35;;;7.40;99.90;;;;;;5090912;28;20241;-66
2023/10/17 07:54:45;;;;;;;2.80;1.55;;;7.40;99.90;;;;;;5094510;28;20209;-66
2023/10/17 07:57:19;;;;;;;1.42;1.30;;;7.40;99.90;;;;;;5092977;28;20254;-65
2023/10/17 07:59:51;;;;;;;3.70;1.27;;;7.50;99.90;;;;;;5090978;28;20213;-66
2023/10/17 08:02:20;;;;;;;2.70;1.25;;;7.50;99.90;;;;;;5089642;28;20226;-66
2023/10/17 08:04:49;;;;;;;2.33;1.35;;;7.50;99.90;;;;;;5092307;28;20218;-66
2023/10/17 08:07:20;;;;;;;1.55;1.42;;;7.50;99.90;;;;;;5096130;28;20594;-66
2023/10/17 08:09:56;;;;;;;1.10;1.00;;;7.60;99.90;;;;;;5090646;28;20206;-66
2023/10/17 08:12:29;;;;;;;1.15;1.05;;;7.60;99.90;;;;;;5090354;28;20225;-66
2023/10/17 08:15:17;;;;;;;1.50;1.27;;;7.70;99.90;;;;;;5093895;28;20218;-65
2023/10/17 08:17:48;;;;;;;1.52;1.38;;;7.80;99.90;;;;;;5093165;28;20649;-66
2023/10/17 08:23:06;;;;;;;1.30;1.20;;;7.90;99.90;;;;;;5087917;28;20235;-67
2023/10/17 08:25:40;;;;;;;1.10;1.00;;;7.90;99.90;;;;;;5092084;28;20656;-66
2023/10/17 08:28:31;;;;;;;2.47;1.40;;;8.00;99.90;;;;;;5092724;28;20689;-65
2023/10/17 08:31:05;;;;;;;3.00;1.55;;;7.90;99.90;;;;;;5093430;28;20292;-66
2023/10/17 08:33:37;;;;;;;1.75;1.15;;;8.00;99.90;;;;;;5093233;28;20222;-66
2023/10/17 08:36:06;;;;;;;1.20;1.10;;;8.00;99.90;;;;;;5093475;28;20202;-67
2023/10/17 08:38:33;;;;;;;1.35;1.20;;;8.00;99.90;;;;;;5092583;28;20759;-66
2023/10/17 08:41:05;;;;;;;1.40;1.30;;;8.00;99.90;;;;;;5090890;28;20266;-66
2023/10/17 08:43:36;;;;;;;1.65;1.40;;;8.00;99.90;;;;;;5092128;28;20966;-66
2023/10/17 08:46:07;;;;;;;1.25;1.15;;;8.10;99.90;;;;;;5090873;28;20222;-66
2023/10/17 08:48:37;;;;;;;1.77;1.67;;;8.20;99.90;;;;;;5091459;28;20225;-66
2023/10/17 08:51:07;;;;;;;1.60;1.30;;;8.20;99.90;;;;;;5091476;28;20248;-66
2023/10/17 08:53:54;;;;;;;1.40;1.30;;;8.20;99.90;;;;;;5093210;28;20212;-66
2023/10/17 08:56:23;;;;;;;2.00;1.10;;;8.20;99.90;;;;;;5092842;28;20217;-66
2023/10/17 08:59:03;;;;;;;2.22;1.13;;;8.20;99.90;;;;;;5092880;28;20202;-65
2023/10/17 09:01:31;;;;;;;1.50;1.40;;;8.20;99.90;;;;;;5089857;28;20271;-65
2023/10/17 09:04:03;;;;;;;1.40;1.15;;;8.30;99.90;;;;;;5092074;28;20656;-66
2023/10/17 09:06:32;;;;;;;1.77;1.10;;;8.30;99.90;;;;;;5094718;28;20331;-65
2023/10/17 09:12:01;;;;;;;1.40;1.30;;;8.30;99.90;;;;;;5091801;28;20245;-67
2023/10/17 09:14:43;;;;;;;1.40;1.30;;;8.20;99.90;;;;;;5094392;28;20216;-64
2023/10/17 09:17:16;;;;;;;1.70;1.60;;;8.20;99.90;;;;;;5094238;28;20213;-66
2023/10/17 09:19:52;;;;;;;1.95;1.85;;;8.20;99.90;;;;;;5092005;28;20586;-66
2023/10/17 09:22:37;;;;;;;1.55;1.30;;;8.30;99.90;;;;;;5089071;28;22241;-65
2023/10/17 09:25:22;;;;;;;2.08;1.77;;;8.40;99.90;;;;;;5092165;28;20267;-65
2023/10/17 09:27:52;;;;;;;1.35;1.25;;;8.40;99.90;;;;;;5090998;28;20216;-65
2023/10/17 09:30:23;;;;;;;3.08;1.10;;;8.50;99.90;;;;;;5093545;28;20210;-65
2023/10/17 09:32:52;;;;;;;1.55;1.45;;;8.50;99.90;;;;;;5090518;28;20648;-65
2023/10/17 09:35:20;;;;;;;1.75;1.50;;;8.60;99.90;;;;;;5095879;28;20207;-65
2023/10/17 09:37:50;;;;;;;1.42;1.33;;;8.50;99.90;;;;;;5094437;28;20210;-65
2023/10/17 09:40:27;;;;;;;2.08;1.55;;;8.60;99.90;;;;;;5096882;28;20202;-65
2023/10/17 09:42:55;;;;;;;3.85;1.48;;;8.50;99.90;;;;;;5092701;28;20249;-64
2023/10/17 09:45:24;;;;;;;1.50;1.40;;;8.50;99.90;;;;;;5096006;28;21168;-65
2023/10/17 09:48:05;;;;;;;1.70;1.50;;;8.40;99.90;;;;;;5094784;28;20202;-65
2023/10/17 09:50:37;;;;;;;1.70;1.40;;;8.40;99.90;;;;;;5096978;28;20202;-65
2023/10/17 09:53:14;;;;;;;3.60;2.85;;;8.40;99.90;;;;;;5092480;28;20287;-65
2023/10/17 09:55:46;;;;;;;1.50;1.40;;;8.50;99.90;;;;;;5094264;28;20216;-66
2023/10/17 09:58:18;;;;;;;1.55;1.40;;;8.50;99.90;;;;;;5096943;28;20710;-65
2023/10/17 10:00:53;;;;;;;2.83;1.30;;;8.60;99.90;;;;;;5094149;28;20599;-65
2023/10/17 10:03:22;;;;;;;2.05;1.63;;;8.60;99.90;;;;;;5093892;28;20279;-65
2023/10/17 10:05:54;;;;;;;3.08;1.83;;;8.60;99.90;;;;;;5093262;28;20225;-65
2023/10/17 10:08:32;;;;;;;2.67;1.50;;;8.70;99.90;;;;;;5097277;28;20325;-66
2023/10/17 10:11:00;;;;;;;1.65;1.20;;;8.70;99.90;;;;;;5097430;28;20217;-66
2023/10/17 10:13:31;;;;;;;1.50;1.38;;;8.70;99.90;;;;;;5093890;28;20212;-65
2023/10/17 10:16:02;;;;;;;1.75;1.65;;;8.80;99.90;;;;;;5093719;28;20212;-65
2023/10/17 10:18:53;;;;;;;1.60;1.50;;;8.80;99.90;;;;;;5097715;28;20499;-65
2023/10/17 10:21:22;;;;;;;2.35;2.00;;;8.80;99.90;;;;;;5093454;28;20230;-65
2023/10/17 10:23:54;;;;;;;3.05;2.58;;;8.70;99.90;;;;;;5095224;28;20217;-66
2023/10/17 10:26:22;;;;;;;1.55;1.45;;;8.70;99.90;;;;;;5095748;28;20248;-65
2023/10/17 10:28:51;;;;;;;1.40;1.30;;;8.70;99.90;;;;;;5093764;28;20213;-65
2023/10/17 10:31:38;;;;;;;2.10;1.90;;;8.80;99.90;;;;;;5092588;28;20226;-64
2023/10/17 10:34:07;;;;;;;2.10;1.05;;;8.80;99.90;;;;;;5091661;28;20202;-65
2023/10/17 10:36:37;;;;;;;1.55;1.27;;;8.80;99.90;;;;;;5097318;28;20211;-65
2023/10/17 10:39:15;;;;;;;2.08;1.80;;;8.90;99.90;;;;;;5093487;28;20206;-65
2023/10/17 10:42:00;;;;;;;1.40;1.30;;;9.00;99.90;;;;;;5093679;28;20306;-65
2023/10/17 10:44:28;;;;;;;1.75;1.65;;;9.00;99.90;;;;;;5096332;28;20233;-65
2023/10/17 10:46:58;;;;;;;2.17;1.98;;;9.00;99.90;;;;;;5094566;28;20267;-65
2023/10/17 10:49:27;;;;;;;1.45;1.35;;;9.00;99.90;;;;;;5095604;28;20683;-64
2023/10/17 10:51:57;;;;;;;2.40;1.95;;;9.00;99.90;;;;;;5093788;28;21126;-64
2023/10/17 10:54:27;;;;;;;2.20;2.00;;;9.10;99.90;;;;;;5097156;28;20278;-64
2023/10/17 10:56:55;;;;;;;2.17;1.38;;;9.30;99.90;;;;;;5095824;28;20229;-63
2023/10/17 10:59:24;;;;;;;2.30;1.85;;;9.30;99.90;;;;;;5095710;28;20210;-65
2023/10/17 11:01:52;;;;;;;2.00;1.48;;;9.30;99.90;;;;;;5090063;28;20230;-64
2023/10/17 11:04:21;;;;;;;1.40;1.30;;;9.30;99.90;;;;;;5095262;28;20206;-66
2023/10/17 11:06:51;;;;;;;1.60;1.30;;;9.40;99.90;;;;;;5094286;28;20226;-65
2023/10/17 11:09:24;;;;;;;1.50;1.40;;;9.40;99.90;;;;;;5094198;28;20692;-65
2023/10/17 11:11:53;;;;;;;2.45;1.73;;;9.40;99.90;;;;;;5092623;28;20288;-65
2023/10/17 11:14:22;;;;;;;3.00;1.52;;;9.50;99.90;;;;;;5096187;28;20213;-65
2023/10/17 11:16:51;;;;;;;2.38;2.17;;;9.50;99.90;;;;;;5093539;28;20211;-66
2023/10/17 11:19:21;;;;;;;2.05;1.20;;;9.60;99.90;;;;;;5095014;28;20220;-68
2023/10/17 11:21:55;;;;;;;2.03;1.60;;;9.60;99.90;;;;;;5092509;28;20229;-65
2023/10/17 11:24:25;;;;;;;2.53;1.92;;;9.70;99.90;;;;;;5095265;28;20216;-66
2023/10/17 11:26:55;;;;;;;3.80;1.80;;;9.80;99.90;;;;;;5096138;28;20224;-65
2023/10/17 11:29:26;;;;;;;3.15;1.38;;;9.80;99.90;;;;;;5096053;28;20205;-64
2023/10/17 11:31:59;;;;;;;1.52;1.40;;;9.80;99.90;;;;;;5094126;28;20237;-65
2023/10/17 11:34:34;;;;;;;2.45;1.77;;;9.90;99.90;;;;;;5096592;28;20251;-65
2023/10/17 11:37:11;;;;;;;2.33;1.80;;;10.10;99.90;;;;;;5097033;28;20292;-67
2023/10/17 11:39:40;;;;;;;1.58;1.42;;;10.10;99.90;;;;;;5096407;28;20312;-65
2023/10/17 11:42:09;;;;;;;2.08;1.42;;;10.20;99.90;;;;;;5093304;28;20233;-65
2023/10/17 11:44:46;;;;;;;1.60;1.20;;;10.20;99.90;;;;;;5094582;28;20240;-65
2023/10/17 11:47:23;;;;;;;1.23;1.10;;;10.20;99.90;;;;;;5094824;28;20209;-64
2023/10/17 11:49:54;;;;;;;2.55;1.77;;;10.20;99.90;;;;;;5093324;28;20201;-66
2023/10/17 11:52:26;;;;;;;1.63;1.13;;;10.60;99.90;;;;;;5090025;28;20225;-66
2023/10/17 11:54:55;;;;;;;1.30;1.10;;;11.00;99.90;;;;;;5094510;28;20213;-66
2023/10/17 11:57:25;;;;;;;1.20;1.10;;;11.40;99.90;;;;;;5094236;28;20282;-65
2023/10/17 12:00:06;;;;;;;1.45;1.23;;;12.00;99.90;;;;;;5092404;28;20214;-67
2023/10/17 12:02:41;;;;;;;0.93;0.80;;;12.50;99.90;;;;;;5089458;28;20226;-66
2023/10/17 12:05:17;;;;;;;1.73;1.52;;;12.80;99.90;;;;;;5095361;28;20209;-66
2023/10/17 12:07:49;;;;;;;1.27;1.17;;;12.90;99.90;;;;;;5094426;28;20218;-66
2023/10/17 12:10:18;;;;;;;1.58;1.33;;;13.10;99.90;;;;;;5092940;28;20213;-65
2023/10/17 12:12:46;;;;;;;4.70;1.30;;;13.20;99.90;;;;;;5090997;28;20242;-67
2023/10/17 12:15:20;;;;;;;1.20;0.98;;;13.20;99.90;;;;;;5093929;28;20664;-66
2023/10/17 12:17:49;;;;;;;1.25;1.15;;;13.30;99.90;;;;;;5093018;28;20264;-65
2023/10/17 12:20:25;;;;;;;2.45;1.02;;;13.30;99.90;;;;;;5093111;28;20198;-65
2023/10/17 12:22:56;;;;;;;1.50;1.40;;;13.20;99.90;;;;;;5089156;28;20225;-65
2023/10/17 12:25:24;;;;;;;1.20;1.00;;;13.20;99.90;;;;;;5094593;28;20282;-67
2023/10/17 12:27:56;;;;;;;3.03;1.42;;;13.50;99.90;;;;;;5091264;28;20237;-67
2023/10/17 12:30:27;;;;;;;1.10;0.90;;;13.80;99.90;;;;;;5093365;28;20198;-65
2023/10/17 12:32:56;;;;;;;1.23;1.13;;;14.00;99.90;;;;;;5090741;28;20591;-65
2023/10/17 12:35:27;;;;;;;2.25;1.17;;;14.20;99.90;;;;;;5092816;28;20289;-65
2023/10/17 12:37:59;;;;;;;1.00;0.90;;;14.50;99.90;;;;;;5090205;28;20202;-66
2023/10/17 12:40:31;;;;;;;2.13;1.40;;;14.50;99.90;;;;;;5094747;28;20198;-66
2023/10/17 12:43:01;;;;;;;1.33;1.10;;;14.60;99.90;;;;;;5089572;28;21127;-66
2023/10/17 12:45:32;;;;;;;1.35;1.05;;;14.60;99.90;;;;;;5091768;28;20215;-66
2023/10/17 12:48:00;;;;;;;1.33;1.20;;;15.10;99.90;;;;;;5093063;28;20218;-65
2023/10/17 12:50:33;;;;;;;1.67;1.30;;;15.60;99.90;;;;;;5092105;28;20202;-66
2023/10/17 12:53:01;;;;;;;1.30;1.13;;;15.80;99.90;;;;;;5090722;28;20232;-66
2023/10/17 12:55:30;;;;;;;1.45;1.20;;;16.10;99.90;;;;;;5094283;28;20220;-69
2023/10/17 12:58:00;;;;;;;1.10;1.00;;;16.10;99.90;;;;;;5091938;28;20217;-67
2023/10/17 13:00:30;;;;;;;1.63;1.00;;;16.40;99.90;;;;;;5093280;28;20217;-66
2023/10/17 13:02:59;;;;;;;0.98;0.90;;;16.50;99.90;;;;;;5089001;28;20233;-66
2023/10/17 13:05:28;;;;;;;1.10;0.80;;;16.50;99.50;;;;;;5096814;28;20644;-66
2023/10/17 13:07:57;;;;;;;0.98;0.98;;;16.40;99.70;;;;;;5096121;28;20221;-66
2023/10/17 13:10:26;;;;;;;1.70;0.98;;;16.30;99.50;;;;;;5098049;28;20198;-67
2023/10/17 13:12:54;;;;;;;4.63;1.20;;;16.00;99.80;;;;;;5094757;28;20233;-65
2023/10/17 13:15:23;;;;;;;1.10;0.90;;;16.10;99.50;;;;;;5096521;28;20244;-66
2023/10/17 13:17:55;;;;;;;1.08;0.80;;;16.10;99.70;;;;;;5096109;28;20210;-66
2023/10/17 13:20:28;;;;;;;0.90;0.70;;;16.30;99.10;;;;;;5097619;28;20213;-66
2023/10/17 13:23:10;;;;;;;1.67;0.70;;;16.40;99.40;;;;;;5093795;28;20350;-66
2023/10/17 13:25:39;;;;;;;1.50;1.05;;;16.20;99.50;;;;;;5095958;28;20212;-66
2023/10/17 13:28:10;;;;;;;1.27;1.17;;;15.70;99.60;;;;;;5094996;28;21125;-65
2023/10/17 13:30:38;;;;;;;1.33;0.80;;;15.50;99.90;;;;;;5095512;28;20301;-65
2023/10/17 13:33:07;;;;;;;2.00;1.27;;;15.30;99.90;;;;;;5093511;28;20241;-66
2023/10/17 13:35:40;;;;;;;2.03;1.00;;;15.10;99.90;;;;;;5095906;28;20218;-66
2023/10/17 13:38:10;;;;;;;0.80;0.80;;;14.90;99.90;;;;;;5097595;28;20824;-66
2023/10/17 13:40:38;;;;;;;1.13;1.02;;;14.70;99.90;;;;;;5095755;28;20221;-66
2023/10/17 13:43:07;;;;;;;0.93;0.80;;;14.90;99.90;;;;;;5092855;28;20261;-66
2023/10/17 13:45:41;;;;;;;1.10;1.00;;;15.10;99.90;;;;;;5094196;28;20222;-65
2023/10/17 13:48:09;;;;;;;1.52;1.10;;;15.10;99.90;;;;;;5097652;28;20299;-66
2023/10/17 13:50:37;;;;;;;0.93;0.82;;;15.30;99.90;;;;;;5095787;28;20851;-65
2023/10/17 13:53:09;;;;;;;2.65;1.65;;;15.40;99.90;;;;;;5093937;28;20308;-66
2023/10/17 13:55:41;;;;;;;1.00;1.00;;;15.40;99.90;;;;;;5097553;28;20214;-65
2023/10/17 13:58:09;;;;;;;1.02;0.95;;;15.40;99.90;;;;;;5096237;28;20202;-66
2023/10/17 14:00:44;;;;;;;0.80;0.70;;;15.40;99.90;;;;;;5096900;28;20248;-66
2023/10/17 14:03:13;;;;;;;1.70;1.55;;;15.30;99.90;;;;;;5093727;28;20316;-66
2023/10/17 14:05:43;;;;;;;2.53;1.10;;;15.10;99.90;;;;;;5096139;28;20209;-66
2023/10/17 14:08:13;;;;;;;1.05;0.95;;;15.00;99.90;;;;;;5095756;28;20230;-66
2023/10/17 14:10:43;;;;;;;0.90;0.70;;;14.80;99.90;;;;;;5096447;28;20228;-66
2023/10/17 14:13:12;;;;;;;1.73;1.10;;;15.00;99.90;;;;;;5091502;28;20229;-67
2023/10/17 14:15:40;;;;;;;1.08;0.98;;;14.70;99.90;;;;;;5095871;28;20213;-65
2023/10/17 14:18:14;;;;;;;1.30;0.70;;;14.30;99.90;;;;;;5094095;28;20251;-67
2023/10/17 14:21:04;;;;;;;0.90;0.70;;;14.00;99.90;;;;;;5094180;28;20290;-66
2023/10/17 14:23:35;;;;;;;1.30;1.20;;;13.80;99.90;;;;;;5095057;28;20221;-65
2023/10/17 14:26:03;;;;;;;3.00;1.00;;;13.40;99.90;;;;;;5093752;28;20202;-65
2023/10/17 14:28:32;;;;;;;2.88;1.27;;;13.20;99.90;;;;;;5094095;28;20249;-65
2023/10/17 14:31:03;;;;;;;1.75;1.25;;;13.00;99.90;;;;;;5095056;28;20270;-67
2023/10/17 14:33:32;;;;;;;1.10;1.00;;;12.90;99.90;;;;;;5094650;28;21136;-66
2023/10/17 14:36:04;;;;;;;0.80;0.70;;;12.80;99.90;;;;;;5095450;28;20705;-67
2023/10/17 14:38:34;;;;;;;2.00;1.00;;;12.70;99.90;;;;;;5095648;28;21129;-65
2023/10/17 14:41:10;;;;;;;1.00;0.90;;;12.70;99.90;;;;;;5093623;28;20297;-66
2023/10/17 14:43:38;;;;;;;0.80;0.75;;;12.60;99.90;;;;;;5094290;28;20594;-65
2023/10/17 14:46:06;;;;;;;1.67;0.90;;;12.50;99.90;;;;;;5092781;28;20692;-66
2023/10/17 14:48:37;;;;;;;1.73;1.10;;;12.50;99.90;;;;;;5095778;28;20241;-66
2023/10/17 14:51:05;;;;;;;4.15;0.90;;;12.40;99.90;;;;;;5094069;28;20210;-66
2023/10/17 14:53:34;;;;;;;1.30;0.90;;;12.40;99.90;;;;;;5095144;28;20313;-67